createdAt,value
2022-07-30T00:00:07.322Z,18.95
2022-07-30T00:00:24.698Z,18.99
2022-07-30T00:00:27.498Z,18.91
2022-07-30T00:00:37.437Z,18.94
2022-07-30T00:00:47.391Z,18.94
2022-07-30T00:00:57.218Z,18.98
2022-07-30T00:01:07.422Z,18.95
2022-07-30T00:01:17.295Z,18.97
2022-07-30T00:01:27.328Z,18.92
2022-07-30T00:01:37.291Z,18.95
2022-07-30T00:01:47.383Z,18.97
2022-07-30T00:01:57.320Z,18.94
2022-07-30T00:02:07.242Z,18.91
2022-07-30T00:02:17.253Z,18.94
2022-07-30T00:02:27.240Z,18.92
2022-07-30T00:02:37.319Z,18.92
2022-07-30T00:02:47.472Z,18.94
2022-07-30T00:02:57.173Z,18.95
2022-07-30T00:03:07.210Z,18.90
2022-07-30T00:03:17.420Z,18.92
2022-07-30T00:03:27.426Z,18.91
2022-07-30T00:03:37.221Z,18.91
2022-07-30T00:03:47.376Z,18.91
2022-07-30T00:03:57.402Z,18.91
2022-07-30T00:04:07.337Z,18.91
2022-07-30T00:04:17.328Z,18.92
2022-07-30T00:04:27.372Z,18.86
2022-07-30T00:04:37.411Z,18.90
2022-07-30T00:04:47.385Z,18.86
2022-07-30T00:04:57.267Z,18.84
2022-07-30T00:05:07.351Z,18.90
2022-07-30T00:05:17.366Z,18.87
2022-07-30T00:05:27.408Z,18.87
2022-07-30T00:05:37.386Z,18.84
2022-07-30T00:05:47.200Z,18.84
2022-07-30T00:05:57.475Z,18.86
2022-07-30T00:06:07.382Z,18.87
2022-07-30T00:06:17.180Z,18.86
2022-07-30T00:06:27.250Z,18.86
2022-07-30T00:06:37.451Z,18.84
2022-07-30T00:06:47.354Z,18.86
2022-07-30T00:06:57.741Z,18.83
2022-07-30T00:07:07.433Z,18.87
2022-07-30T00:07:17.333Z,18.86
2022-07-30T00:07:27.301Z,18.86
2022-07-30T00:07:37.396Z,18.90
2022-07-30T00:07:47.455Z,18.82
2022-07-30T00:07:57.520Z,18.90
2022-07-30T00:08:07.354Z,18.84
2022-07-30T00:08:17.400Z,18.86
2022-07-30T00:08:27.418Z,18.84
2022-07-30T00:08:37.280Z,18.86
2022-07-30T00:08:47.180Z,18.91
2022-07-30T00:08:57.452Z,18.84
2022-07-30T00:09:07.287Z,18.87
2022-07-30T00:09:17.295Z,18.86
2022-07-30T00:09:27.352Z,18.86
2022-07-30T00:09:37.185Z,18.84
2022-07-30T00:09:47.194Z,18.90
2022-07-30T00:09:57.250Z,18.86
2022-07-30T00:10:07.242Z,18.87
2022-07-30T00:10:17.493Z,18.84
2022-07-30T00:10:27.273Z,18.87
2022-07-30T00:10:37.476Z,18.90
2022-07-30T00:10:47.169Z,18.91
2022-07-30T00:10:57.445Z,18.90
2022-07-30T00:11:07.243Z,18.91
2022-07-30T00:11:17.251Z,18.91
2022-07-30T00:11:28.047Z,18.90
2022-07-30T00:11:37.237Z,18.87
2022-07-30T00:11:47.352Z,18.91
2022-07-30T00:11:57.205Z,18.90
2022-07-30T00:12:07.440Z,18.92
2022-07-30T00:12:17.203Z,18.92
2022-07-30T00:12:27.234Z,18.91
2022-07-30T00:12:37.419Z,18.92
2022-07-30T00:12:47.382Z,18.94
2022-07-30T00:12:57.365Z,18.92
2022-07-30T00:13:07.427Z,18.94
2022-07-30T00:13:17.324Z,18.94
2022-07-30T00:13:27.427Z,18.95
2022-07-30T00:13:37.399Z,18.94
2022-07-30T00:13:47.443Z,18.94
2022-07-30T00:13:57.297Z,18.94
2022-07-30T00:14:07.191Z,18.97
2022-07-30T00:14:17.443Z,18.94
2022-07-30T00:14:27.304Z,18.94
2022-07-30T00:14:37.228Z,18.94
2022-07-30T00:14:47.471Z,18.95
2022-07-30T00:14:57.214Z,18.97
2022-07-30T00:15:07.441Z,18.94
2022-07-30T00:15:17.290Z,18.98
2022-07-30T00:15:27.421Z,18.98
2022-07-30T00:15:37.242Z,18.94
2022-07-30T00:15:47.277Z,18.95
2022-07-30T00:15:57.440Z,18.95
2022-07-30T00:16:07.271Z,18.95
2022-07-30T00:16:17.487Z,18.98
2022-07-30T00:16:27.287Z,18.95
2022-07-30T00:16:37.359Z,18.97
2022-07-30T00:16:47.341Z,18.99
2022-07-30T00:16:57.995Z,18.97
2022-07-30T00:17:07.411Z,18.98
2022-07-30T00:17:17.263Z,18.98
2022-07-30T00:17:27.415Z,18.97
2022-07-30T00:17:37.313Z,18.98
2022-07-30T00:17:49.182Z,18.99
2022-07-30T00:17:57.346Z,18.99
2022-07-30T00:18:07.367Z,18.98
2022-07-30T00:18:17.259Z,19.01
2022-07-30T00:18:27.189Z,18.95
2022-07-30T00:18:37.380Z,18.98
2022-07-30T00:18:47.461Z,18.99
2022-07-30T00:18:57.230Z,18.99
2022-07-30T00:19:07.348Z,18.97
2022-07-30T00:19:17.446Z,18.99
2022-07-30T00:19:27.283Z,18.97
2022-07-30T00:19:37.242Z,19.01
2022-07-30T00:19:47.238Z,18.99
2022-07-30T00:19:57.369Z,18.97
2022-07-30T00:20:07.242Z,18.97
2022-07-30T00:20:17.173Z,18.99
2022-07-30T00:20:28.113Z,19.02
2022-07-30T00:20:37.309Z,19.02
2022-07-30T00:20:47.390Z,19.05
2022-07-30T00:20:57.244Z,18.98
2022-07-30T00:21:07.190Z,18.97
2022-07-30T00:21:20.277Z,18.99
2022-07-30T00:21:36.069Z,18.98
2022-07-30T00:21:39.193Z,18.98
2022-07-30T00:21:47.193Z,19.02
2022-07-30T00:21:57.317Z,18.99
2022-07-30T00:22:07.370Z,18.97
2022-07-30T00:22:17.286Z,18.97
2022-07-30T00:22:27.443Z,18.95
2022-07-30T00:22:37.248Z,18.97
2022-07-30T00:22:47.429Z,18.97
2022-07-30T00:22:57.456Z,18.99
2022-07-30T00:23:07.156Z,18.97
2022-07-30T00:23:17.193Z,18.98
2022-07-30T00:23:27.267Z,18.95
2022-07-30T00:23:37.197Z,18.97
2022-07-30T00:23:51.134Z,18.94
2022-07-30T00:24:01.893Z,18.94
2022-07-30T00:24:07.389Z,18.92
2022-07-30T00:24:17.291Z,18.94
2022-07-30T00:24:27.449Z,18.97
2022-07-30T00:24:37.294Z,18.95
2022-07-30T00:24:47.407Z,18.92
2022-07-30T00:24:57.173Z,18.95
2022-07-30T00:25:07.198Z,18.95
2022-07-30T00:25:17.315Z,18.97
2022-07-30T00:25:27.433Z,18.97
2022-07-30T00:25:37.284Z,18.98
2022-07-30T00:25:47.378Z,18.94
2022-07-30T00:25:57.230Z,18.94
2022-07-30T00:26:07.180Z,18.98
2022-07-30T00:26:17.229Z,18.95
2022-07-30T00:26:27.398Z,18.95
2022-07-30T00:26:37.429Z,18.94
2022-07-30T00:26:47.275Z,18.97
2022-07-30T00:26:57.579Z,18.95
2022-07-30T00:27:07.419Z,18.92
2022-07-30T00:27:17.432Z,18.94
2022-07-30T00:27:27.160Z,18.97
2022-07-30T00:27:37.394Z,18.95
2022-07-30T00:27:47.213Z,18.97
2022-07-30T00:27:57.186Z,18.97
2022-07-30T00:28:07.335Z,18.97
2022-07-30T00:28:17.469Z,18.97
2022-07-30T00:28:27.180Z,18.97
2022-07-30T00:28:37.242Z,18.95
2022-07-30T00:28:47.264Z,18.95
2022-07-30T00:28:57.195Z,18.95
2022-07-30T00:29:07.250Z,18.97
2022-07-30T00:29:17.176Z,18.95
2022-07-30T00:29:27.161Z,18.94
2022-07-30T00:29:37.407Z,18.94
2022-07-30T00:29:47.322Z,18.92
2022-07-30T00:29:57.301Z,18.95
2022-07-30T00:30:07.398Z,18.94
2022-07-30T00:30:17.448Z,18.91
2022-07-30T00:30:27.537Z,18.95
2022-07-30T00:30:37.435Z,18.90
2022-07-30T00:30:47.376Z,18.92
2022-07-30T00:30:57.234Z,18.90
2022-07-30T00:31:07.519Z,18.92
2022-07-30T00:31:17.351Z,18.90
2022-07-30T00:31:27.192Z,18.91
2022-07-30T00:31:37.315Z,18.91
2022-07-30T00:31:47.413Z,18.90
2022-07-30T00:31:57.237Z,18.87
2022-07-30T00:32:07.249Z,18.90
2022-07-30T00:32:17.239Z,18.91
2022-07-30T00:32:27.250Z,18.87
2022-07-30T00:32:37.276Z,18.91
2022-07-30T00:32:47.237Z,18.91
2022-07-30T00:32:57.430Z,18.92
2022-07-30T00:33:08.290Z,18.87
2022-07-30T00:33:17.256Z,18.87
2022-07-30T00:33:27.319Z,18.92
2022-07-30T00:33:37.422Z,18.87
2022-07-30T00:33:47.210Z,18.91
2022-07-30T00:33:57.244Z,18.90
2022-07-30T00:34:07.283Z,18.86
2022-07-30T00:34:17.351Z,18.87
2022-07-30T00:34:27.281Z,18.86
2022-07-30T00:34:37.393Z,18.86
2022-07-30T00:34:47.175Z,18.84
2022-07-30T00:34:57.431Z,18.84
2022-07-30T00:35:07.249Z,18.82
2022-07-30T00:35:17.315Z,18.87
2022-07-30T00:35:27.696Z,18.86
2022-07-30T00:35:37.325Z,18.84
2022-07-30T00:35:47.448Z,18.84
2022-07-30T00:35:57.343Z,18.83
2022-07-30T00:36:07.389Z,18.84
2022-07-30T00:36:17.199Z,18.83
2022-07-30T00:36:27.232Z,18.82
2022-07-30T00:36:37.470Z,18.83
2022-07-30T00:36:47.393Z,18.76
2022-07-30T00:36:57.475Z,18.83
2022-07-30T00:37:07.443Z,18.82
2022-07-30T00:37:17.298Z,18.82
2022-07-30T00:37:27.415Z,18.82
2022-07-30T00:37:37.467Z,18.83
2022-07-30T00:37:47.317Z,18.80
2022-07-30T00:37:57.222Z,18.82
2022-07-30T00:38:07.277Z,18.83
2022-07-30T00:38:17.200Z,18.82
2022-07-30T00:38:27.253Z,18.80
2022-07-30T00:38:37.262Z,18.80
2022-07-30T00:38:47.493Z,18.82
2022-07-30T00:38:57.439Z,18.80
2022-07-30T00:39:07.478Z,18.79
2022-07-30T00:39:17.227Z,18.82
2022-07-30T00:39:27.221Z,18.80
2022-07-30T00:39:37.386Z,18.80
2022-07-30T00:39:47.315Z,18.77
2022-07-30T00:39:57.391Z,18.79
2022-07-30T00:40:07.289Z,18.79
2022-07-30T00:40:17.419Z,18.82
2022-07-30T00:40:27.333Z,18.79
2022-07-30T00:40:37.228Z,18.80
2022-07-30T00:40:47.430Z,18.79
2022-07-30T00:40:57.376Z,18.74
2022-07-30T00:41:07.178Z,18.74
2022-07-30T00:41:17.377Z,18.79
2022-07-30T00:41:27.289Z,18.77
2022-07-30T00:41:37.356Z,18.77
2022-07-30T00:41:47.311Z,18.79
2022-07-30T00:41:57.253Z,18.77
2022-07-30T00:42:07.275Z,18.77
2022-07-30T00:42:17.416Z,18.74
2022-07-30T00:42:27.305Z,18.77
2022-07-30T00:42:37.350Z,18.76
2022-07-30T00:42:47.309Z,18.76
2022-07-30T00:42:57.498Z,18.76
2022-07-30T00:43:07.209Z,18.76
2022-07-30T00:43:17.349Z,18.79
2022-07-30T00:43:27.253Z,18.76
2022-07-30T00:43:37.405Z,18.77
2022-07-30T00:43:47.246Z,18.72
2022-07-30T00:43:57.304Z,18.70
2022-07-30T00:44:07.194Z,18.74
2022-07-30T00:44:17.314Z,18.74
2022-07-30T00:44:27.462Z,18.77
2022-07-30T00:44:37.229Z,18.72
2022-07-30T00:44:47.425Z,18.74
2022-07-30T00:44:57.350Z,18.76
2022-07-30T00:45:07.432Z,18.76
2022-07-30T00:45:17.281Z,18.74
2022-07-30T00:45:27.462Z,18.77
2022-07-30T00:45:37.516Z,18.76
2022-07-30T00:45:47.330Z,18.74
2022-07-30T00:45:57.329Z,18.73
2022-07-30T00:46:07.439Z,18.76
2022-07-30T00:46:17.443Z,18.73
2022-07-30T00:46:27.187Z,18.70
2022-07-30T00:46:37.243Z,18.76
2022-07-30T00:46:47.445Z,18.74
2022-07-30T00:46:57.600Z,18.77
2022-07-30T00:47:07.236Z,18.76
2022-07-30T00:47:17.183Z,18.74
2022-07-30T00:47:27.441Z,18.68
2022-07-30T00:47:37.207Z,18.73
2022-07-30T00:47:47.448Z,18.70
2022-07-30T00:47:57.231Z,18.74
2022-07-30T00:48:07.415Z,18.70
2022-07-30T00:48:17.422Z,18.74
2022-07-30T00:48:27.347Z,18.70
2022-07-30T00:48:37.334Z,18.72
2022-07-30T00:48:47.500Z,18.73
2022-07-30T00:48:57.396Z,18.76
2022-07-30T00:49:07.240Z,18.76
2022-07-30T00:49:17.321Z,18.72
2022-07-30T00:49:27.438Z,18.73
2022-07-30T00:49:41.382Z,18.73
2022-07-30T00:49:47.278Z,18.73
2022-07-30T00:49:57.500Z,18.74
2022-07-30T00:50:07.287Z,18.72
2022-07-30T00:50:17.323Z,18.73
2022-07-30T00:50:27.449Z,18.74
2022-07-30T00:50:37.366Z,18.74
2022-07-30T00:50:47.213Z,18.74
2022-07-30T00:50:57.350Z,18.74
2022-07-30T00:51:07.405Z,18.73
2022-07-30T00:51:17.250Z,18.72
2022-07-30T00:51:27.212Z,18.68
2022-07-30T00:51:37.355Z,18.72
2022-07-30T00:51:47.446Z,18.76
2022-07-30T00:51:57.336Z,18.73
2022-07-30T00:52:07.230Z,18.70
2022-07-30T00:52:17.245Z,18.73
2022-07-30T00:52:27.209Z,18.73
2022-07-30T00:52:37.331Z,18.70
2022-07-30T00:52:47.395Z,18.72
2022-07-30T00:52:57.236Z,18.72
2022-07-30T00:53:07.283Z,18.70
2022-07-30T00:53:17.448Z,18.70
2022-07-30T00:53:27.179Z,18.70
2022-07-30T00:53:37.187Z,18.72
2022-07-30T00:53:47.448Z,18.68
2022-07-30T00:53:57.350Z,18.68
2022-07-30T00:54:07.428Z,18.67
2022-07-30T00:54:17.414Z,18.70
2022-07-30T00:54:27.265Z,18.68
2022-07-30T00:54:37.217Z,18.68
2022-07-30T00:54:47.219Z,18.67
2022-07-30T00:54:57.357Z,18.68
2022-07-30T00:55:07.194Z,18.67
2022-07-30T00:55:17.257Z,18.68
2022-07-30T00:55:27.465Z,18.73
2022-07-30T00:55:37.205Z,18.70
2022-07-30T00:55:47.181Z,18.65
2022-07-30T00:55:57.278Z,18.67
2022-07-30T00:56:07.381Z,18.67
2022-07-30T00:56:17.259Z,18.70
2022-07-30T00:56:27.415Z,18.68
2022-07-30T00:56:37.345Z,18.68
2022-07-30T00:56:47.362Z,18.68
2022-07-30T00:56:57.505Z,18.67
2022-07-30T00:57:07.395Z,18.65
2022-07-30T00:57:17.222Z,18.67
2022-07-30T00:57:27.333Z,18.65
2022-07-30T00:57:37.312Z,18.68
2022-07-30T00:57:47.258Z,18.68
2022-07-30T00:57:57.351Z,18.65
2022-07-30T00:58:07.438Z,18.65
2022-07-30T00:58:17.447Z,18.68
2022-07-30T00:58:27.465Z,18.61
2022-07-30T00:58:37.303Z,18.67
2022-07-30T00:58:47.377Z,18.65
2022-07-30T00:58:57.188Z,18.67
2022-07-30T00:59:07.284Z,18.64
2022-07-30T00:59:17.239Z,18.61
2022-07-30T00:59:27.289Z,18.65
2022-07-30T00:59:37.443Z,18.65
2022-07-30T00:59:47.367Z,18.65
2022-07-30T00:59:57.224Z,18.64
2022-07-30T01:00:07.322Z,18.64
2022-07-30T01:00:17.194Z,18.65
2022-07-30T01:00:27.493Z,18.64
2022-07-30T01:00:37.520Z,18.61
2022-07-30T01:00:47.475Z,18.64
2022-07-30T01:00:57.468Z,18.65
2022-07-30T01:01:07.263Z,18.67
2022-07-30T01:01:17.347Z,18.62
2022-07-30T01:01:27.266Z,18.62
2022-07-30T01:01:37.333Z,18.65
2022-07-30T01:01:47.358Z,18.64
2022-07-30T01:01:57.381Z,18.64
2022-07-30T01:02:07.321Z,18.65
2022-07-30T01:02:17.223Z,18.65
2022-07-30T01:02:27.411Z,18.61
2022-07-30T01:02:37.430Z,18.64
2022-07-30T01:02:47.455Z,18.67
2022-07-30T01:02:57.419Z,18.64
2022-07-30T01:03:07.308Z,18.68
2022-07-30T01:03:17.374Z,18.62
2022-07-30T01:03:27.348Z,18.67
2022-07-30T01:03:37.417Z,18.68
2022-07-30T01:03:47.452Z,18.65
2022-07-30T01:03:57.445Z,18.68
2022-07-30T01:04:07.389Z,18.65
2022-07-30T01:04:17.171Z,18.67
2022-07-30T01:04:27.222Z,18.65
2022-07-30T01:04:37.217Z,18.64
2022-07-30T01:04:47.330Z,18.70
2022-07-30T01:04:57.291Z,18.68
2022-07-30T01:05:07.376Z,18.65
2022-07-30T01:05:17.376Z,18.68
2022-07-30T01:05:27.290Z,18.68
2022-07-30T01:05:37.353Z,18.67
2022-07-30T01:05:47.228Z,18.67
2022-07-30T01:05:57.343Z,18.70
2022-07-30T01:06:07.179Z,18.64
2022-07-30T01:06:17.374Z,18.68
2022-07-30T01:06:27.340Z,18.65
2022-07-30T01:06:37.299Z,18.72
2022-07-30T01:06:47.212Z,18.67
2022-07-30T01:06:57.670Z,18.67
2022-07-30T01:07:07.259Z,18.67
2022-07-30T01:07:17.283Z,18.67
2022-07-30T01:07:27.476Z,18.68
2022-07-30T01:07:37.211Z,18.68
2022-07-30T01:07:47.352Z,18.72
2022-07-30T01:07:57.381Z,18.68
2022-07-30T01:08:07.194Z,18.72
2022-07-30T01:08:17.192Z,18.68
2022-07-30T01:08:27.424Z,18.72
2022-07-30T01:08:37.265Z,18.68
2022-07-30T01:08:47.199Z,18.72
2022-07-30T01:08:57.243Z,18.72
2022-07-30T01:09:07.275Z,18.72
2022-07-30T01:09:17.288Z,18.70
2022-07-30T01:09:27.382Z,18.72
2022-07-30T01:09:37.206Z,18.74
2022-07-30T01:09:48.094Z,18.76
2022-07-30T01:09:57.290Z,18.74
2022-07-30T01:10:07.312Z,18.70
2022-07-30T01:10:17.250Z,18.74
2022-07-30T01:10:27.196Z,18.74
2022-07-30T01:10:37.268Z,18.76
2022-07-30T01:10:47.422Z,18.76
2022-07-30T01:10:57.441Z,18.76
2022-07-30T01:11:07.376Z,18.74
2022-07-30T01:11:17.506Z,18.74
2022-07-30T01:11:27.233Z,18.74
2022-07-30T01:11:37.434Z,18.77
2022-07-30T01:11:47.417Z,18.76
2022-07-30T01:11:57.270Z,18.76
2022-07-30T01:12:07.278Z,18.76
2022-07-30T01:12:17.484Z,18.77
2022-07-30T01:12:27.402Z,18.76
2022-07-30T01:12:37.382Z,18.77
2022-07-30T01:12:47.340Z,18.76
2022-07-30T01:12:57.290Z,18.74
2022-07-30T01:13:07.231Z,18.76
2022-07-30T01:13:17.460Z,18.77
2022-07-30T01:13:27.347Z,18.76
2022-07-30T01:13:37.354Z,18.76
2022-07-30T01:13:47.487Z,18.79
2022-07-30T01:13:57.162Z,18.76
2022-07-30T01:14:07.290Z,18.74
2022-07-30T01:14:17.351Z,18.79
2022-07-30T01:14:27.407Z,18.79
2022-07-30T01:14:37.326Z,18.77
2022-07-30T01:14:47.410Z,18.79
2022-07-30T01:14:57.313Z,18.77
2022-07-30T01:15:07.293Z,18.82
2022-07-30T01:15:17.330Z,18.80
2022-07-30T01:15:27.497Z,18.83
2022-07-30T01:15:37.195Z,18.82
2022-07-30T01:15:47.216Z,18.80
2022-07-30T01:15:57.359Z,18.80
2022-07-30T01:16:07.471Z,18.82
2022-07-30T01:16:17.235Z,18.83
2022-07-30T01:16:27.378Z,18.82
2022-07-30T01:16:37.964Z,18.80
2022-07-30T01:16:47.340Z,18.83
2022-07-30T01:16:57.847Z,18.80
2022-07-30T01:17:07.281Z,18.84
2022-07-30T01:17:17.360Z,18.83
2022-07-30T01:17:27.450Z,18.84
2022-07-30T01:17:37.357Z,18.84
2022-07-30T01:17:47.637Z,18.86
2022-07-30T01:17:57.191Z,18.84
2022-07-30T01:18:07.220Z,18.84
2022-07-30T01:18:17.346Z,18.82
2022-07-30T01:18:27.310Z,18.86
2022-07-30T01:18:37.242Z,18.82
2022-07-30T01:18:47.388Z,18.83
2022-07-30T01:18:57.310Z,18.84
2022-07-30T01:19:07.321Z,18.90
2022-07-30T01:19:17.355Z,18.84
2022-07-30T01:19:27.344Z,18.86
2022-07-30T01:19:37.175Z,18.86
2022-07-30T01:19:47.192Z,18.86
2022-07-30T01:19:57.313Z,18.86
2022-07-30T01:20:08.141Z,18.90
2022-07-30T01:20:17.413Z,18.90
2022-07-30T01:20:27.246Z,18.90
2022-07-30T01:20:37.273Z,18.86
2022-07-30T01:20:47.294Z,18.86
2022-07-30T01:20:57.293Z,18.82
2022-07-30T01:21:07.407Z,18.90
2022-07-30T01:21:17.301Z,18.90
2022-07-30T01:21:27.417Z,18.86
2022-07-30T01:21:37.228Z,18.87
2022-07-30T01:21:47.319Z,18.87
2022-07-30T01:21:57.481Z,18.87
2022-07-30T01:22:07.439Z,18.86
2022-07-30T01:22:17.290Z,18.91
2022-07-30T01:22:27.883Z,18.83
2022-07-30T01:22:37.235Z,18.86
2022-07-30T01:22:47.430Z,18.86
2022-07-30T01:22:57.436Z,18.87
2022-07-30T01:23:07.290Z,18.91
2022-07-30T01:23:17.324Z,18.87
2022-07-30T01:23:27.363Z,18.91
2022-07-30T01:23:37.237Z,18.90
2022-07-30T01:23:47.339Z,18.90
2022-07-30T01:23:57.259Z,18.87
2022-07-30T01:24:07.414Z,18.87
2022-07-30T01:24:17.482Z,18.90
2022-07-30T01:24:27.343Z,18.87
2022-07-30T01:24:37.191Z,18.84
2022-07-30T01:24:47.225Z,18.94
2022-07-30T01:24:57.261Z,18.91
2022-07-30T01:25:07.268Z,18.90
2022-07-30T01:25:17.287Z,18.90
2022-07-30T01:25:27.440Z,18.90
2022-07-30T01:25:37.184Z,18.90
2022-07-30T01:25:47.500Z,18.91
2022-07-30T01:25:57.422Z,18.92
2022-07-30T01:26:07.315Z,18.90
2022-07-30T01:26:17.342Z,18.86
2022-07-30T01:26:27.394Z,18.90
2022-07-30T01:26:37.401Z,18.91
2022-07-30T01:26:47.345Z,18.91
2022-07-30T01:26:57.537Z,18.94
2022-07-30T01:27:07.203Z,18.90
2022-07-30T01:27:19.888Z,18.92
2022-07-30T01:27:27.326Z,18.92
2022-07-30T01:27:37.293Z,18.92
2022-07-30T01:27:47.302Z,18.92
2022-07-30T01:27:57.180Z,18.94
2022-07-30T01:28:07.265Z,18.92
2022-07-30T01:28:18.639Z,18.94
2022-07-30T01:28:27.374Z,18.97
2022-07-30T01:28:37.329Z,18.95
2022-07-30T01:28:47.361Z,18.97
2022-07-30T01:28:57.381Z,18.95
2022-07-30T01:29:07.433Z,18.94
2022-07-30T01:29:17.327Z,18.97
2022-07-30T01:29:27.481Z,18.97
2022-07-30T01:29:37.278Z,18.97
2022-07-30T01:29:47.447Z,18.95
2022-07-30T01:29:57.244Z,18.95
2022-07-30T01:30:07.191Z,18.95
2022-07-30T01:30:17.338Z,18.97
2022-07-30T01:30:27.366Z,18.94
2022-07-30T01:30:37.236Z,18.97
2022-07-30T01:30:47.428Z,18.95
2022-07-30T01:30:57.178Z,18.95
2022-07-30T01:31:07.342Z,18.97
2022-07-30T01:31:17.450Z,18.97
2022-07-30T01:31:27.228Z,18.94
2022-07-30T01:31:37.460Z,18.94
2022-07-30T01:31:47.380Z,18.94
2022-07-30T01:31:57.509Z,18.94
2022-07-30T01:32:07.545Z,18.94
2022-07-30T01:32:17.221Z,18.94
2022-07-30T01:32:27.241Z,18.95
2022-07-30T01:32:37.235Z,18.95
2022-07-30T01:32:47.169Z,18.91
2022-07-30T01:32:57.357Z,18.91
2022-07-30T01:33:07.440Z,18.94
2022-07-30T01:33:17.243Z,18.95
2022-07-30T01:33:27.433Z,18.98
2022-07-30T01:33:37.335Z,18.94
2022-07-30T01:33:47.399Z,18.95
2022-07-30T01:33:57.487Z,18.95
2022-07-30T01:34:07.356Z,18.94
2022-07-30T01:34:17.244Z,18.95
2022-07-30T01:34:27.455Z,18.99
2022-07-30T01:34:37.199Z,18.97
2022-07-30T01:34:47.462Z,18.97
2022-07-30T01:34:57.316Z,18.98
2022-07-30T01:35:07.207Z,18.95
2022-07-30T01:35:17.189Z,18.99
2022-07-30T01:35:27.320Z,18.99
2022-07-30T01:35:37.209Z,18.95
2022-07-30T01:35:47.167Z,18.97
2022-07-30T01:35:57.346Z,18.97
2022-07-30T01:36:07.180Z,18.97
2022-07-30T01:36:17.288Z,18.98
2022-07-30T01:36:27.346Z,18.99
2022-07-30T01:36:37.197Z,18.95
2022-07-30T01:36:47.233Z,18.97
2022-07-30T01:36:57.460Z,18.97
2022-07-30T01:37:07.440Z,18.97
2022-07-30T01:37:17.484Z,18.94
2022-07-30T01:37:27.340Z,18.98
2022-07-30T01:37:37.379Z,18.97
2022-07-30T01:37:47.409Z,18.94
2022-07-30T01:37:57.271Z,18.98
2022-07-30T01:38:07.372Z,18.97
2022-07-30T01:38:17.173Z,18.98
2022-07-30T01:38:27.471Z,18.97
2022-07-30T01:38:37.188Z,18.95
2022-07-30T01:38:47.234Z,18.95
2022-07-30T01:38:57.317Z,18.95
2022-07-30T01:39:07.445Z,18.95
2022-07-30T01:39:17.343Z,18.97
2022-07-30T01:39:27.326Z,18.97
2022-07-30T01:39:37.362Z,18.97
2022-07-30T01:39:47.293Z,18.99
2022-07-30T01:39:57.163Z,18.99
2022-07-30T01:40:07.258Z,18.97
2022-07-30T01:40:17.275Z,18.99
2022-07-30T01:40:27.239Z,18.95
2022-07-30T01:40:37.373Z,18.95
2022-07-30T01:40:47.242Z,18.97
2022-07-30T01:40:57.169Z,18.95
2022-07-30T01:41:07.414Z,18.99
2022-07-30T01:41:17.291Z,18.98
2022-07-30T01:41:27.192Z,18.99
2022-07-30T01:41:37.309Z,18.98
2022-07-30T01:41:47.450Z,18.97
2022-07-30T01:41:57.468Z,18.95
2022-07-30T01:42:07.221Z,18.95
2022-07-30T01:42:17.207Z,18.98
2022-07-30T01:42:27.385Z,18.97
2022-07-30T01:42:37.315Z,19.01
2022-07-30T01:42:47.260Z,18.99
2022-07-30T01:42:57.181Z,18.97
2022-07-30T01:43:07.402Z,18.99
2022-07-30T01:43:17.282Z,18.98
2022-07-30T01:43:27.329Z,18.98
2022-07-30T01:43:37.363Z,18.97
2022-07-30T01:43:47.434Z,18.98
2022-07-30T01:43:57.398Z,18.97
2022-07-30T01:44:07.363Z,18.98
2022-07-30T01:44:17.407Z,19.01
2022-07-30T01:44:27.394Z,19.01
2022-07-30T01:44:37.331Z,18.99
2022-07-30T01:44:47.388Z,19.01
2022-07-30T01:44:57.215Z,18.99
2022-07-30T01:45:07.379Z,19.01
2022-07-30T01:45:17.176Z,18.99
2022-07-30T01:45:27.208Z,19.01
2022-07-30T01:45:42.157Z,18.99
2022-07-30T01:45:47.209Z,18.99
2022-07-30T01:45:57.422Z,18.98
2022-07-30T01:46:07.257Z,19.01
2022-07-30T01:46:17.525Z,19.02
2022-07-30T01:46:27.205Z,19.05
2022-07-30T01:46:37.223Z,19.01
2022-07-30T01:46:47.331Z,18.99
2022-07-30T01:46:57.502Z,19.01
2022-07-30T01:47:07.304Z,18.98
2022-07-30T01:47:17.288Z,18.99
2022-07-30T01:47:27.223Z,18.99
2022-07-30T01:47:37.193Z,19.01
2022-07-30T01:47:47.338Z,19.01
2022-07-30T01:47:57.470Z,18.99
2022-07-30T01:48:07.331Z,18.99
2022-07-30T01:48:17.377Z,19.02
2022-07-30T01:48:27.196Z,19.02
2022-07-30T01:48:37.339Z,19.01
2022-07-30T01:48:47.370Z,18.99
2022-07-30T01:48:57.417Z,19.02
2022-07-30T01:49:07.230Z,18.98
2022-07-30T01:49:17.297Z,19.02
2022-07-30T01:49:27.458Z,19.01
2022-07-30T01:49:37.309Z,19.05
2022-07-30T01:49:47.223Z,19.02
2022-07-30T01:49:57.271Z,19.06
2022-07-30T01:50:07.181Z,18.99
2022-07-30T01:50:17.300Z,19.01
2022-07-30T01:50:27.292Z,19.02
2022-07-30T01:50:37.372Z,19.06
2022-07-30T01:50:47.386Z,19.06
2022-07-30T01:50:57.342Z,19.02
2022-07-30T01:51:07.313Z,19.02
2022-07-30T01:51:17.173Z,19.05
2022-07-30T01:51:27.208Z,18.98
2022-07-30T01:51:37.893Z,19.06
2022-07-30T01:51:47.406Z,19.02
2022-07-30T01:51:57.313Z,19.01
2022-07-30T01:52:07.379Z,19.06
2022-07-30T01:52:17.172Z,19.08
2022-07-30T01:52:27.297Z,19.10
2022-07-30T01:52:37.406Z,19.05
2022-07-30T01:52:47.332Z,19.06
2022-07-30T01:52:57.309Z,19.08
2022-07-30T01:53:07.315Z,19.06
2022-07-30T01:53:17.393Z,19.06
2022-07-30T01:53:27.187Z,19.05
2022-07-30T01:53:37.259Z,19.06
2022-07-30T01:53:47.245Z,19.06
2022-07-30T01:53:57.237Z,19.10
2022-07-30T01:54:07.432Z,19.05
2022-07-30T01:54:17.406Z,19.05
2022-07-30T01:54:27.304Z,19.05
2022-07-30T01:54:37.280Z,19.05
2022-07-30T01:54:47.263Z,19.06
2022-07-30T01:54:57.436Z,19.10
2022-07-30T01:55:17.209Z,19.06
2022-07-30T01:55:17.639Z,19.05
2022-07-30T01:55:27.288Z,19.06
2022-07-30T01:55:37.242Z,19.08
2022-07-30T01:55:47.234Z,19.06
2022-07-30T01:55:57.175Z,19.06
2022-07-30T01:56:07.248Z,19.06
2022-07-30T01:56:17.423Z,19.08
2022-07-30T01:56:27.300Z,19.05
2022-07-30T01:56:37.200Z,19.06
2022-07-30T01:56:47.200Z,19.05
2022-07-30T01:56:57.784Z,19.10
2022-07-30T01:57:07.274Z,19.08
2022-07-30T01:57:17.507Z,19.05
2022-07-30T01:57:27.459Z,19.08
2022-07-30T01:57:37.207Z,19.10
2022-07-30T01:57:47.269Z,19.08
2022-07-30T01:57:57.201Z,19.10
2022-07-30T01:58:07.455Z,19.11
2022-07-30T01:58:17.268Z,19.14
2022-07-30T01:58:27.307Z,19.13
2022-07-30T01:58:37.292Z,19.10
2022-07-30T01:58:47.320Z,19.10
2022-07-30T01:58:57.175Z,19.08
2022-07-30T01:59:07.280Z,19.10
2022-07-30T01:59:17.249Z,19.11
2022-07-30T01:59:27.400Z,19.13
2022-07-30T01:59:37.481Z,19.10
2022-07-30T01:59:47.241Z,19.10
2022-07-30T01:59:57.290Z,19.11
2022-07-30T02:00:07.217Z,19.14
2022-07-30T02:00:17.466Z,19.13
2022-07-30T02:00:27.479Z,19.10
2022-07-30T02:00:37.523Z,19.13
2022-07-30T02:00:47.322Z,19.14
2022-07-30T02:00:57.313Z,19.15
2022-07-30T02:01:07.634Z,19.15
2022-07-30T02:01:17.301Z,19.14
2022-07-30T02:01:27.501Z,19.13
2022-07-30T02:01:37.402Z,19.17
2022-07-30T02:01:47.266Z,19.14
2022-07-30T02:01:57.329Z,19.14
2022-07-30T02:02:07.175Z,19.13
2022-07-30T02:02:18.318Z,19.14
2022-07-30T02:02:27.411Z,19.14
2022-07-30T02:02:37.306Z,19.14
2022-07-30T02:02:47.358Z,19.14
2022-07-30T02:02:57.367Z,19.13
2022-07-30T02:03:07.570Z,19.11
2022-07-30T02:03:17.253Z,19.13
2022-07-30T02:03:27.222Z,19.17
2022-07-30T02:03:37.286Z,19.14
2022-07-30T02:03:47.364Z,19.15
2022-07-30T02:03:57.475Z,19.15
2022-07-30T02:04:07.411Z,19.14
2022-07-30T02:04:17.186Z,19.17
2022-07-30T02:04:27.350Z,19.15
2022-07-30T02:04:37.280Z,19.15
2022-07-30T02:04:47.309Z,19.13
2022-07-30T02:04:57.220Z,19.17
2022-07-30T02:05:07.197Z,19.14
2022-07-30T02:05:17.294Z,19.18
2022-07-30T02:05:27.228Z,19.14
2022-07-30T02:05:37.325Z,19.15
2022-07-30T02:05:47.196Z,19.17
2022-07-30T02:05:57.209Z,19.15
2022-07-30T02:06:07.201Z,19.18
2022-07-30T02:06:17.399Z,19.20
2022-07-30T02:06:27.430Z,19.18
2022-07-30T02:06:37.438Z,19.17
2022-07-30T02:06:47.420Z,19.17
2022-07-30T02:06:58.016Z,19.14
2022-07-30T02:07:07.241Z,19.17
2022-07-30T02:07:17.362Z,19.18
2022-07-30T02:07:27.325Z,19.17
2022-07-30T02:07:37.196Z,19.18
2022-07-30T02:07:47.422Z,19.18
2022-07-30T02:07:57.207Z,19.17
2022-07-30T02:08:07.362Z,19.20
2022-07-30T02:08:17.310Z,19.15
2022-07-30T02:08:27.329Z,19.17
2022-07-30T02:08:37.292Z,19.13
2022-07-30T02:08:47.287Z,19.17